EDW24ZX LSZH-LEIB
Flight info
| Callsign | EDW24ZX |
|---|---|
| Flight time | 1h 51m |
| Altitude | 37000 |
| Route | VEBIT T50 ROTOS Z669 ULMES DCT VADAR DCT GEVEA DCT INCUS DCT BALSI DCT RETNO DCT TUPOX DCT MTG DCT DIVKO DCT VATIR DCT PIVUS DCT SULID DCT DIMIB DCT POS |
| Aircraft | A320/M-SDE2E3FGHIJ1RWXY/LB1 |
Departure
| Time | 2026-05-07 14:08 |
|---|---|
| Airport | Zürich Airport (LSZH) |
Arrival
| Time | 2026-05-07 15:59 |
|---|---|
| Airport | Ibiza Airport (LEIB) |
| Time | Latitude | Longitude | Altitude | Speed | Heading |
|---|---|---|---|---|---|
| 2026-05-07 13:08 | 47.45434 | 8.55691 | 1407 ft | 0 kts | 186° |
| 2026-05-07 13:59 | 47.45438 | 8.55692 | 1407 ft | 3 kts | 185° |
| 2026-05-07 14:00 | 47.45464 | 8.55693 | 1412 ft | 4 kts | 175° |
| 2026-05-07 14:00 | 47.45491 | 8.55686 | 1410 ft | 4 kts | 156° |
| 2026-05-07 14:00 | 47.45512 | 8.55665 | 1409 ft | 4 kts | 117° |
| 2026-05-07 14:00 | 47.45515 | 8.55651 | 1407 ft | 0 kts | 96° |
| 2026-05-07 14:02 | 47.45515 | 8.55659 | 1413 ft | 4 kts | 96° |
| 2026-05-07 14:02 | 47.45510 | 8.55732 | 1407 ft | 10 kts | 96° |
| 2026-05-07 14:03 | 47.45500 | 8.55868 | 1411 ft | 16 kts | 96° |
| 2026-05-07 14:03 | 47.45487 | 8.56053 | 1409 ft | 18 kts | 96° |
| 2026-05-07 14:03 | 47.45489 | 8.56224 | 1408 ft | 15 kts | 66° |
| 2026-05-07 14:03 | 47.45539 | 8.56323 | 1412 ft | 9 kts | 51° |
| 2026-05-07 14:04 | 47.45581 | 8.56400 | 1418 ft | 15 kts | 56° |
| 2026-05-07 14:04 | 47.45585 | 8.56599 | 1417 ft | 20 kts | 95° |
| 2026-05-07 14:04 | 47.45573 | 8.56783 | 1422 ft | 16 kts | 96° |
| 2026-05-07 14:04 | 47.45562 | 8.56939 | 1420 ft | 14 kts | 96° |
| 2026-05-07 14:05 | 47.45579 | 8.57003 | 1422 ft | 0 kts | 40° |
| 2026-05-07 14:06 | 47.45596 | 8.57013 | 1423 ft | 8 kts | 18° |
| 2026-05-07 14:06 | 47.45664 | 8.56965 | 1424 ft | 14 kts | 283° |
| 2026-05-07 14:06 | 47.45670 | 8.56907 | 1423 ft | 0 kts | 274° |
| 2026-05-07 14:07 | 47.45670 | 8.56901 | 1423 ft | 1 kts | 274° |
| 2026-05-07 14:07 | 47.45670 | 8.56888 | 1423 ft | 2 kts | 274° |
| 2026-05-07 14:07 | 47.45671 | 8.56879 | 1423 ft | 0 kts | 274° |
| 2026-05-07 14:07 | 47.45672 | 8.56862 | 1422 ft | 6 kts | 274° |
| 2026-05-07 14:08 | 47.45695 | 8.56544 | 1416 ft | 67 kts | 276° |
| 2026-05-07 14:08 | 47.45766 | 8.55532 | 1403 ft | 129 kts | 276° |
| 2026-05-07 14:08 | 47.45877 | 8.54036 | 1690 ft | 150 kts | 278° |
| 2026-05-07 14:08 | 47.45988 | 8.52463 | 2252 ft | 160 kts | 275° |
| 2026-05-07 14:09 | 47.46077 | 8.50774 | 2865 ft | 168 kts | 274° |
| 2026-05-07 14:09 | 47.46140 | 8.49038 | 3436 ft | 174 kts | 271° |
| 2026-05-07 14:09 | 47.45835 | 8.47234 | 3693 ft | 197 kts | 235° |
| 2026-05-07 14:09 | 47.44778 | 8.45747 | 3932 ft | 224 kts | 223° |
| 2026-05-07 14:10 | 47.43612 | 8.44046 | 4360 ft | 248 kts | 231° |
| 2026-05-07 14:10 | 47.42876 | 8.42706 | 4768 ft | 258 kts | 234° |
| 2026-05-07 14:10 | 47.41438 | 8.39813 | 5959 ft | 264 kts | 236° |
| 2026-05-07 14:10 | 47.40372 | 8.37604 | 6908 ft | 265 kts | 236° |
| 2026-05-07 14:11 | 47.39654 | 8.36129 | 7556 ft | 268 kts | 235° |
| 2026-05-07 14:11 | 47.38605 | 8.33839 | 8520 ft | 271 kts | 243° |
| 2026-05-07 14:11 | 47.37802 | 8.31313 | 9464 ft | 273 kts | 244° |
| 2026-05-07 14:11 | 47.36948 | 8.28799 | 10273 ft | 277 kts | 243° |
| 2026-05-07 14:12 | 47.36019 | 8.26186 | 10578 ft | 299 kts | 242° |
| 2026-05-07 14:12 | 47.35003 | 8.23379 | 10802 ft | 320 kts | 242° |
| 2026-05-07 14:12 | 47.33942 | 8.20446 | 11391 ft | 328 kts | 242° |
| 2026-05-07 14:12 | 47.32860 | 8.17450 | 12117 ft | 332 kts | 242° |
| 2026-05-07 14:13 | 47.31774 | 8.14422 | 12846 ft | 336 kts | 242° |
| 2026-05-07 14:13 | 47.30683 | 8.11362 | 13572 ft | 340 kts | 242° |
| 2026-05-07 14:13 | 47.29580 | 8.08255 | 14189 ft | 344 kts | 242° |
| 2026-05-07 14:13 | 47.28465 | 8.05116 | 14800 ft | 348 kts | 242° |
| 2026-05-07 14:14 | 47.27336 | 8.01936 | 15417 ft | 352 kts | 242° |
| 2026-05-07 14:14 | 47.26311 | 7.98644 | 16026 ft | 356 kts | 248° |
| 2026-05-07 14:14 | 47.25372 | 7.95257 | 16633 ft | 359 kts | 248° |
| 2026-05-07 14:14 | 47.24421 | 7.91840 | 17240 ft | 363 kts | 248° |
| 2026-05-07 14:15 | 47.23455 | 7.88386 | 17840 ft | 366 kts | 248° |
| 2026-05-07 14:15 | 47.22477 | 7.84905 | 18422 ft | 370 kts | 248° |
| 2026-05-07 14:15 | 47.21487 | 7.81397 | 18958 ft | 373 kts | 248° |
| 2026-05-07 14:15 | 47.20486 | 7.77854 | 19540 ft | 376 kts | 248° |
| 2026-05-07 14:16 | 47.19462 | 7.74297 | 20096 ft | 379 kts | 245° |
| 2026-05-07 14:16 | 47.18123 | 7.70945 | 20633 ft | 383 kts | 235° |
| 2026-05-07 14:16 | 47.16477 | 7.67848 | 21178 ft | 386 kts | 232° |
| 2026-05-07 14:16 | 47.14805 | 7.64753 | 21720 ft | 389 kts | 232° |
| 2026-05-07 14:17 | 47.13117 | 7.61634 | 22248 ft | 391 kts | 233° |
| 2026-05-07 14:17 | 47.11418 | 7.58491 | 22765 ft | 394 kts | 233° |
| 2026-05-07 14:17 | 47.09711 | 7.55328 | 23250 ft | 397 kts | 233° |
| 2026-05-07 14:17 | 47.07995 | 7.52149 | 23706 ft | 399 kts | 233° |
| 2026-05-07 14:18 | 47.06265 | 7.48952 | 24096 ft | 401 kts | 233° |
| 2026-05-07 14:18 | 47.04520 | 7.45738 | 24502 ft | 403 kts | 233° |
| 2026-05-07 14:18 | 47.02765 | 7.42515 | 24898 ft | 405 kts | 233° |
| 2026-05-07 14:18 | 47.01002 | 7.39287 | 25281 ft | 407 kts | 232° |
| 2026-05-07 14:19 | 46.99227 | 7.36050 | 25671 ft | 408 kts | 232° |
| 2026-05-07 14:19 | 46.97444 | 7.32802 | 26064 ft | 410 kts | 232° |
| 2026-05-07 14:19 | 46.95656 | 7.29545 | 26435 ft | 411 kts | 233° |
| 2026-05-07 14:19 | 46.93859 | 7.26274 | 26798 ft | 413 kts | 233° |
| 2026-05-07 14:20 | 46.92059 | 7.22996 | 27195 ft | 413 kts | 233° |
| 2026-05-07 14:20 | 46.90255 | 7.19712 | 27571 ft | 415 kts | 233° |
| 2026-05-07 14:20 | 46.88445 | 7.16418 | 27916 ft | 417 kts | 233° |
| 2026-05-07 14:20 | 46.86627 | 7.13111 | 28260 ft | 418 kts | 233° |
| 2026-05-07 14:21 | 46.84802 | 7.09795 | 28591 ft | 420 kts | 233° |
| 2026-05-07 14:21 | 46.82968 | 7.06464 | 28914 ft | 421 kts | 233° |
| 2026-05-07 14:21 | 46.81130 | 7.03123 | 29217 ft | 423 kts | 234° |
| 2026-05-07 14:21 | 46.79283 | 6.99771 | 29513 ft | 425 kts | 234° |
| 2026-05-07 14:22 | 46.77425 | 6.96410 | 29797 ft | 426 kts | 234° |
| 2026-05-07 14:22 | 46.75559 | 6.93044 | 30048 ft | 427 kts | 234° |
| 2026-05-07 14:22 | 46.73687 | 6.89672 | 30312 ft | 428 kts | 233° |
| 2026-05-07 14:22 | 46.71814 | 6.86298 | 30542 ft | 429 kts | 233° |
| 2026-05-07 14:23 | 46.69939 | 6.82927 | 30850 ft | 427 kts | 233° |
| 2026-05-07 14:23 | 46.68069 | 6.79574 | 31150 ft | 426 kts | 233° |
| 2026-05-07 14:23 | 46.66201 | 6.76230 | 31442 ft | 425 kts | 233° |
| 2026-05-07 14:23 | 46.64293 | 6.72945 | 31734 ft | 425 kts | 231° |
| 2026-05-07 14:24 | 46.62313 | 6.69763 | 32042 ft | 424 kts | 230° |
| 2026-05-07 14:24 | 46.60290 | 6.66654 | 32346 ft | 423 kts | 229° |
| 2026-05-07 14:24 | 46.58243 | 6.63570 | 32659 ft | 423 kts | 229° |
| 2026-05-07 14:24 | 46.56201 | 6.60505 | 32971 ft | 422 kts | 229° |
| 2026-05-07 14:25 | 46.54172 | 6.57442 | 33286 ft | 420 kts | 229° |
| 2026-05-07 14:25 | 46.52162 | 6.54364 | 33598 ft | 419 kts | 230° |
| 2026-05-07 14:25 | 46.50171 | 6.51282 | 33901 ft | 418 kts | 230° |
| 2026-05-07 14:25 | 46.48189 | 6.48206 | 34170 ft | 417 kts | 230° |
| 2026-05-07 14:26 | 46.46205 | 6.45133 | 34398 ft | 417 kts | 230° |
| 2026-05-07 14:26 | 46.44223 | 6.42071 | 34626 ft | 417 kts | 229° |
| 2026-05-07 14:26 | 46.42232 | 6.39002 | 34837 ft | 417 kts | 229° |
| 2026-05-07 14:26 | 46.40250 | 6.35945 | 35036 ft | 417 kts | 229° |
| 2026-05-07 14:27 | 46.38258 | 6.32879 | 35245 ft | 417 kts | 229° |
| 2026-05-07 14:27 | 46.36270 | 6.29831 | 35511 ft | 416 kts | 229° |
| 2026-05-07 14:27 | 46.34284 | 6.26796 | 35741 ft | 415 kts | 229° |
| 2026-05-07 14:27 | 46.32293 | 6.23759 | 35934 ft | 416 kts | 229° |
| 2026-05-07 14:28 | 46.30307 | 6.20728 | 36112 ft | 416 kts | 229° |
| 2026-05-07 14:28 | 46.28271 | 6.17753 | 36278 ft | 417 kts | 224° |
| 2026-05-07 14:28 | 46.25934 | 6.15238 | 36436 ft | 421 kts | 214° |
| 2026-05-07 14:28 | 46.23302 | 6.13342 | 36579 ft | 426 kts | 204° |
| 2026-05-07 14:29 | 46.20445 | 6.12139 | 36728 ft | 432 kts | 194° |
| 2026-05-07 14:29 | 46.17467 | 6.11463 | 36903 ft | 432 kts | 193° |
| 2026-05-07 14:29 | 46.14487 | 6.10809 | 36994 ft | 433 kts | 193° |
| 2026-05-07 14:30 | 46.08531 | 6.09481 | 36999 ft | 433 kts | 193° |
| 2026-05-07 14:30 | 46.02574 | 6.08146 | 37002 ft | 433 kts | 193° |
| 2026-05-07 14:31 | 45.96625 | 6.06834 | 37004 ft | 432 kts | 193° |
| 2026-05-07 14:31 | 45.90685 | 6.05531 | 37001 ft | 432 kts | 193° |
| 2026-05-07 14:32 | 45.84753 | 6.04218 | 37002 ft | 432 kts | 193° |
| 2026-05-07 14:32 | 45.78818 | 6.02903 | 36991 ft | 431 kts | 193° |
| 2026-05-07 14:33 | 45.72886 | 6.01594 | 36997 ft | 431 kts | 193° |
| 2026-05-07 14:33 | 45.66962 | 6.00288 | 36978 ft | 430 kts | 193° |
| 2026-05-07 14:34 | 45.61044 | 5.98983 | 36970 ft | 430 kts | 193° |
| 2026-05-07 14:34 | 45.55131 | 5.97686 | 36976 ft | 430 kts | 193° |
| 2026-05-07 14:35 | 45.49227 | 5.96398 | 36986 ft | 429 kts | 193° |
| 2026-05-07 14:35 | 45.43368 | 5.94908 | 36978 ft | 427 kts | 196° |
| 2026-05-07 14:36 | 45.37584 | 5.93027 | 36978 ft | 426 kts | 197° |
| 2026-05-07 14:36 | 45.31824 | 5.91113 | 36995 ft | 425 kts | 196° |
| 2026-05-07 14:37 | 45.26047 | 5.89285 | 36986 ft | 425 kts | 197° |
| 2026-05-07 14:37 | 45.17378 | 5.86612 | 36982 ft | 425 kts | 196° |
| 2026-05-07 14:38 | 45.11605 | 5.84836 | 36989 ft | 424 kts | 196° |
| 2026-05-07 14:38 | 45.05831 | 5.83057 | 36983 ft | 424 kts | 197° |
| 2026-05-07 14:39 | 45.00452 | 5.81343 | 36964 ft | 423 kts | 198° |
| 2026-05-07 14:39 | 44.94717 | 5.79498 | 36974 ft | 423 kts | 196° |
| 2026-05-07 14:40 | 44.88956 | 5.77810 | 36974 ft | 423 kts | 196° |
| 2026-05-07 14:40 | 44.83206 | 5.76098 | 36963 ft | 422 kts | 196° |
| 2026-05-07 14:41 | 44.77474 | 5.74345 | 36969 ft | 421 kts | 197° |
| 2026-05-07 14:41 | 44.71748 | 5.72592 | 36971 ft | 421 kts | 196° |
| 2026-05-07 14:42 | 44.66031 | 5.70853 | 36986 ft | 420 kts | 196° |
| 2026-05-07 14:42 | 44.60313 | 5.69115 | 36980 ft | 420 kts | 196° |
| 2026-05-07 14:43 | 44.54601 | 5.67375 | 36973 ft | 420 kts | 196° |
| 2026-05-07 14:43 | 44.48892 | 5.65637 | 36974 ft | 420 kts | 196° |
| 2026-05-07 14:44 | 44.43184 | 5.63904 | 36966 ft | 420 kts | 196° |
| 2026-05-07 14:44 | 44.37512 | 5.62056 | 36968 ft | 416 kts | 202° |
| 2026-05-07 14:45 | 44.32136 | 5.59155 | 36971 ft | 414 kts | 205° |
| 2026-05-07 14:45 | 44.26774 | 5.56201 | 36963 ft | 414 kts | 205° |
| 2026-05-07 14:46 | 44.21419 | 5.53266 | 36973 ft | 413 kts | 205° |
| 2026-05-07 14:46 | 44.16070 | 5.50355 | 36985 ft | 413 kts | 205° |
| 2026-05-07 14:47 | 44.10709 | 5.47438 | 36986 ft | 414 kts | 205° |
| 2026-05-07 14:47 | 44.05356 | 5.44520 | 36982 ft | 413 kts | 205° |
| 2026-05-07 14:48 | 44.00503 | 5.41891 | 36986 ft | 413 kts | 205° |
| 2026-05-07 14:48 | 43.95193 | 5.39017 | 36988 ft | 412 kts | 205° |
| 2026-05-07 14:49 | 43.89811 | 5.36105 | 36968 ft | 412 kts | 205° |
| 2026-05-07 14:49 | 43.84479 | 5.33232 | 36986 ft | 411 kts | 205° |
| 2026-05-07 14:50 | 43.79159 | 5.30362 | 36993 ft | 410 kts | 205° |
| 2026-05-07 14:50 | 43.73887 | 5.27518 | 36991 ft | 409 kts | 205° |
| 2026-05-07 14:51 | 43.68583 | 5.24675 | 36976 ft | 408 kts | 205° |
| 2026-05-07 14:51 | 43.63288 | 5.21849 | 36988 ft | 407 kts | 205° |
| 2026-05-07 14:52 | 43.58859 | 5.19483 | 36989 ft | 407 kts | 205° |
| 2026-05-07 14:52 | 43.52726 | 5.16197 | 36992 ft | 407 kts | 205° |
| 2026-05-07 14:53 | 43.48316 | 5.13839 | 36986 ft | 406 kts | 205° |
| 2026-05-07 14:53 | 43.43052 | 5.11040 | 36991 ft | 405 kts | 205° |
| 2026-05-07 14:54 | 43.37900 | 5.07973 | 36992 ft | 400 kts | 214° |
| 2026-05-07 14:54 | 43.33310 | 5.03685 | 36996 ft | 399 kts | 217° |
| 2026-05-07 14:55 | 43.28748 | 4.99370 | 36999 ft | 398 kts | 217° |
| 2026-05-07 14:55 | 43.24218 | 4.95107 | 37028 ft | 397 kts | 217° |
| 2026-05-07 14:56 | 43.19632 | 4.90812 | 37022 ft | 396 kts | 217° |
| 2026-05-07 14:56 | 43.15079 | 4.86549 | 37016 ft | 396 kts | 217° |
| 2026-05-07 14:57 | 43.10563 | 4.82322 | 37002 ft | 395 kts | 217° |
| 2026-05-07 14:57 | 43.06029 | 4.78092 | 37013 ft | 394 kts | 216° |
| 2026-05-07 14:58 | 43.01246 | 4.74381 | 37015 ft | 395 kts | 212° |
| 2026-05-07 14:58 | 42.96439 | 4.70747 | 37014 ft | 395 kts | 212° |
| 2026-05-07 14:59 | 42.91647 | 4.67112 | 37001 ft | 394 kts | 212° |
| 2026-05-07 14:59 | 42.86864 | 4.63479 | 37011 ft | 393 kts | 212° |
| 2026-05-07 15:00 | 42.82089 | 4.59876 | 37014 ft | 392 kts | 212° |
| 2026-05-07 15:00 | 42.77315 | 4.56288 | 37028 ft | 392 kts | 212° |
| 2026-05-07 15:01 | 42.72548 | 4.52710 | 37016 ft | 391 kts | 212° |
| 2026-05-07 15:01 | 42.67778 | 4.49132 | 37016 ft | 391 kts | 212° |
| 2026-05-07 15:02 | 42.63009 | 4.45560 | 37011 ft | 391 kts | 212° |
| 2026-05-07 15:02 | 42.58242 | 4.41994 | 37006 ft | 391 kts | 212° |
| 2026-05-07 15:03 | 42.53476 | 4.38428 | 37004 ft | 391 kts | 212° |
| 2026-05-07 15:03 | 42.48718 | 4.34877 | 36999 ft | 390 kts | 212° |
| 2026-05-07 15:04 | 42.43963 | 4.31336 | 37004 ft | 390 kts | 212° |
| 2026-05-07 15:04 | 42.39212 | 4.27811 | 37005 ft | 389 kts | 212° |
| 2026-05-07 15:05 | 42.34468 | 4.24300 | 37005 ft | 389 kts | 212° |
| 2026-05-07 15:05 | 42.29725 | 4.20789 | 36988 ft | 389 kts | 211° |
| 2026-05-07 15:06 | 42.24980 | 4.17281 | 37003 ft | 389 kts | 211° |
| 2026-05-07 15:06 | 42.20233 | 4.13778 | 37000 ft | 389 kts | 211° |
| 2026-05-07 15:07 | 42.15486 | 4.10273 | 36998 ft | 389 kts | 211° |
| 2026-05-07 15:07 | 42.10740 | 4.06780 | 36977 ft | 389 kts | 211° |
| 2026-05-07 15:08 | 42.05989 | 4.03303 | 36982 ft | 389 kts | 211° |
| 2026-05-07 15:08 | 42.01234 | 3.99829 | 36986 ft | 389 kts | 211° |
| 2026-05-07 15:09 | 41.96485 | 3.96353 | 36992 ft | 389 kts | 211° |
| 2026-05-07 15:09 | 41.91722 | 3.92890 | 36979 ft | 389 kts | 210° |
| 2026-05-07 15:10 | 41.86900 | 3.89583 | 36983 ft | 389 kts | 209° |
| 2026-05-07 15:10 | 41.82048 | 3.86367 | 36990 ft | 389 kts | 208° |
| 2026-05-07 15:11 | 41.77202 | 3.83150 | 36990 ft | 389 kts | 209° |
| 2026-05-07 15:11 | 41.72364 | 3.79920 | 37010 ft | 389 kts | 209° |
| 2026-05-07 15:12 | 41.67529 | 3.76670 | 36997 ft | 389 kts | 208° |
| 2026-05-07 15:12 | 41.62693 | 3.73438 | 36996 ft | 389 kts | 208° |
| 2026-05-07 15:13 | 41.57858 | 3.70214 | 36992 ft | 388 kts | 208° |
| 2026-05-07 15:13 | 41.53028 | 3.66999 | 36991 ft | 388 kts | 208° |
| 2026-05-07 15:14 | 41.48194 | 3.63795 | 36974 ft | 388 kts | 208° |
| 2026-05-07 15:14 | 41.43366 | 3.60597 | 36982 ft | 387 kts | 208° |
| 2026-05-07 15:15 | 41.38548 | 3.57396 | 36989 ft | 387 kts | 208° |
| 2026-05-07 15:15 | 41.33755 | 3.54228 | 36983 ft | 387 kts | 208° |
| 2026-05-07 15:16 | 41.28941 | 3.51046 | 36973 ft | 386 kts | 208° |
| 2026-05-07 15:16 | 41.24097 | 3.47851 | 36976 ft | 386 kts | 208° |
| 2026-05-07 15:17 | 41.19302 | 3.44754 | 36975 ft | 387 kts | 204° |
| 2026-05-07 15:17 | 41.14026 | 3.42975 | 36975 ft | 390 kts | 195° |
| 2026-05-07 15:18 | 41.08733 | 3.41576 | 36970 ft | 391 kts | 195° |
| 2026-05-07 15:18 | 41.03403 | 3.40164 | 36950 ft | 391 kts | 195° |
| 2026-05-07 15:19 | 40.98069 | 3.38751 | 36958 ft | 391 kts | 195° |
| 2026-05-07 15:19 | 40.92739 | 3.37343 | 36959 ft | 391 kts | 195° |
| 2026-05-07 15:20 | 40.87400 | 3.35947 | 36960 ft | 391 kts | 195° |
| 2026-05-07 15:20 | 40.82053 | 3.34546 | 36945 ft | 392 kts | 195° |
| 2026-05-07 15:21 | 40.76700 | 3.33156 | 36954 ft | 392 kts | 195° |
| 2026-05-07 15:21 | 40.71348 | 3.31758 | 36961 ft | 392 kts | 195° |
| 2026-05-07 15:22 | 40.65991 | 3.30352 | 36960 ft | 393 kts | 195° |
| 2026-05-07 15:22 | 40.60641 | 3.28945 | 36962 ft | 393 kts | 195° |
| 2026-05-07 15:23 | 40.55273 | 3.27552 | 36962 ft | 393 kts | 195° |
| 2026-05-07 15:23 | 40.49910 | 3.26172 | 36965 ft | 393 kts | 195° |
| 2026-05-07 15:24 | 40.44541 | 3.24789 | 36964 ft | 393 kts | 195° |
| 2026-05-07 15:24 | 40.39170 | 3.23403 | 36944 ft | 393 kts | 195° |
| 2026-05-07 15:25 | 40.33799 | 3.22013 | 36945 ft | 394 kts | 195° |
| 2026-05-07 15:25 | 40.28418 | 3.20621 | 36951 ft | 394 kts | 195° |
| 2026-05-07 15:26 | 40.23043 | 3.19229 | 36952 ft | 394 kts | 195° |
| 2026-05-07 15:26 | 40.17664 | 3.17848 | 36930 ft | 394 kts | 195° |
| 2026-05-07 15:27 | 40.12269 | 3.16463 | 36934 ft | 395 kts | 195° |
| 2026-05-07 15:27 | 40.06871 | 3.15075 | 36941 ft | 396 kts | 195° |
| 2026-05-07 15:28 | 40.01466 | 3.13697 | 36947 ft | 396 kts | 195° |
| 2026-05-07 15:28 | 39.96061 | 3.12329 | 36939 ft | 396 kts | 195° |
| 2026-05-07 15:29 | 39.90893 | 3.10134 | 36944 ft | 389 kts | 211° |
| 2026-05-07 15:29 | 39.86183 | 3.06683 | 36942 ft | 388 kts | 211° |
| 2026-05-07 15:30 | 39.81468 | 3.03245 | 36967 ft | 388 kts | 211° |
| 2026-05-07 15:30 | 39.76753 | 2.99826 | 36962 ft | 388 kts | 211° |
| 2026-05-07 15:31 | 39.72038 | 2.96411 | 36939 ft | 388 kts | 211° |
| 2026-05-07 15:31 | 39.67324 | 2.92995 | 36942 ft | 388 kts | 211° |
| 2026-05-07 15:32 | 39.62602 | 2.89584 | 36919 ft | 389 kts | 211° |
| 2026-05-07 15:32 | 39.60238 | 2.87877 | 36652 ft | 388 kts | 211° |
| 2026-05-07 15:32 | 39.57883 | 2.86179 | 36392 ft | 387 kts | 211° |
| 2026-05-07 15:33 | 39.55533 | 2.84486 | 36135 ft | 386 kts | 210° |
| 2026-05-07 15:33 | 39.53189 | 2.82798 | 35869 ft | 386 kts | 210° |
| 2026-05-07 15:33 | 39.50843 | 2.81109 | 35641 ft | 385 kts | 210° |
| 2026-05-07 15:33 | 39.48503 | 2.79426 | 35388 ft | 385 kts | 210° |
| 2026-05-07 15:34 | 39.46172 | 2.77728 | 35142 ft | 384 kts | 212° |
| 2026-05-07 15:34 | 39.43992 | 2.75739 | 34897 ft | 384 kts | 219° |
| 2026-05-07 15:34 | 39.42043 | 2.73388 | 34656 ft | 385 kts | 225° |
| 2026-05-07 15:34 | 39.40309 | 2.70732 | 34418 ft | 386 kts | 228° |
| 2026-05-07 15:35 | 39.38622 | 2.68039 | 34180 ft | 386 kts | 228° |
| 2026-05-07 15:35 | 39.36933 | 2.65353 | 33958 ft | 384 kts | 228° |
| 2026-05-07 15:35 | 39.35816 | 2.63580 | 33775 ft | 383 kts | 228° |
| 2026-05-07 15:35 | 39.33563 | 2.60017 | 33410 ft | 383 kts | 227° |
| 2026-05-07 15:36 | 39.31872 | 2.57346 | 33129 ft | 385 kts | 228° |
| 2026-05-07 15:36 | 39.30748 | 2.55568 | 32948 ft | 387 kts | 228° |
| 2026-05-07 15:36 | 39.29044 | 2.52874 | 32682 ft | 389 kts | 228° |
| 2026-05-07 15:36 | 39.27329 | 2.50165 | 32413 ft | 390 kts | 227° |
| 2026-05-07 15:37 | 39.25611 | 2.47453 | 32144 ft | 391 kts | 228° |
| 2026-05-07 15:37 | 39.23890 | 2.44734 | 31416 ft | 392 kts | 227° |
| 2026-05-07 15:37 | 39.22179 | 2.42035 | 30860 ft | 386 kts | 227° |
| 2026-05-07 15:37 | 39.20487 | 2.39367 | 30273 ft | 383 kts | 227° |
| 2026-05-07 15:38 | 39.18802 | 2.36716 | 29635 ft | 382 kts | 227° |
| 2026-05-07 15:38 | 39.17121 | 2.34079 | 28972 ft | 380 kts | 227° |
| 2026-05-07 15:38 | 39.15446 | 2.31454 | 28314 ft | 379 kts | 228° |
| 2026-05-07 15:38 | 39.13775 | 2.28835 | 27706 ft | 377 kts | 227° |
| 2026-05-07 15:39 | 39.12118 | 2.26235 | 27081 ft | 375 kts | 227° |
| 2026-05-07 15:39 | 39.10467 | 2.23644 | 26466 ft | 373 kts | 228° |
| 2026-05-07 15:39 | 39.08824 | 2.21068 | 25855 ft | 372 kts | 229° |
| 2026-05-07 15:39 | 39.07180 | 2.18499 | 25272 ft | 371 kts | 229° |
| 2026-05-07 15:40 | 39.05547 | 2.15950 | 24695 ft | 370 kts | 229° |
| 2026-05-07 15:40 | 39.03913 | 2.13396 | 24131 ft | 369 kts | 229° |
| 2026-05-07 15:40 | 39.02285 | 2.10854 | 23586 ft | 368 kts | 230° |
| 2026-05-07 15:40 | 39.00657 | 2.08315 | 22941 ft | 368 kts | 230° |
| 2026-05-07 15:41 | 38.99031 | 2.05777 | 22300 ft | 368 kts | 230° |
| 2026-05-07 15:41 | 38.97403 | 2.03235 | 21670 ft | 368 kts | 229° |
| 2026-05-07 15:41 | 38.95773 | 2.00700 | 21054 ft | 368 kts | 229° |
| 2026-05-07 15:41 | 38.94144 | 1.98166 | 20449 ft | 368 kts | 229° |
| 2026-05-07 15:42 | 38.92512 | 1.95631 | 19958 ft | 366 kts | 230° |
| 2026-05-07 15:42 | 38.91100 | 1.92937 | 19452 ft | 366 kts | 240° |
| 2026-05-07 15:42 | 38.90120 | 1.89916 | 18889 ft | 369 kts | 251° |
| 2026-05-07 15:42 | 38.89464 | 1.86714 | 18325 ft | 371 kts | 253° |
| 2026-05-07 15:43 | 38.88810 | 1.83498 | 17722 ft | 374 kts | 252° |
| 2026-05-07 15:43 | 38.88135 | 1.80260 | 17065 ft | 377 kts | 253° |
| 2026-05-07 15:43 | 38.87471 | 1.77050 | 16446 ft | 377 kts | 253° |
| 2026-05-07 15:43 | 38.86805 | 1.73804 | 15832 ft | 376 kts | 253° |
| 2026-05-07 15:44 | 38.86140 | 1.70561 | 15240 ft | 376 kts | 253° |
| 2026-05-07 15:44 | 38.85474 | 1.67321 | 14657 ft | 375 kts | 253° |
| 2026-05-07 15:44 | 38.84806 | 1.64092 | 14084 ft | 375 kts | 253° |
| 2026-05-07 15:44 | 38.84134 | 1.60862 | 13491 ft | 374 kts | 253° |
| 2026-05-07 15:45 | 38.83460 | 1.57648 | 12849 ft | 372 kts | 253° |
| 2026-05-07 15:45 | 38.82766 | 1.54460 | 12228 ft | 371 kts | 252° |
| 2026-05-07 15:45 | 38.82060 | 1.51289 | 11618 ft | 368 kts | 252° |
| 2026-05-07 15:45 | 38.81354 | 1.48148 | 11020 ft | 366 kts | 252° |
| 2026-05-07 15:46 | 38.79777 | 1.42024 | 9848 ft | 359 kts | 242° |
| 2026-05-07 15:46 | 38.78620 | 1.39212 | 9365 ft | 352 kts | 240° |
| 2026-05-07 15:46 | 38.77512 | 1.36529 | 9219 ft | 327 kts | 241° |
| 2026-05-07 15:47 | 38.76494 | 1.34066 | 9085 ft | 300 kts | 241° |
| 2026-05-07 15:47 | 38.75556 | 1.31801 | 8954 ft | 277 kts | 240° |
| 2026-05-07 15:47 | 38.74682 | 1.29692 | 8747 ft | 260 kts | 240° |
| 2026-05-07 15:47 | 38.73844 | 1.27675 | 8291 ft | 254 kts | 240° |
| 2026-05-07 15:48 | 38.73014 | 1.25684 | 7769 ft | 252 kts | 240° |
| 2026-05-07 15:48 | 38.72187 | 1.23709 | 7219 ft | 250 kts | 240° |
| 2026-05-07 15:48 | 38.71367 | 1.21753 | 6657 ft | 249 kts | 240° |
| 2026-05-07 15:48 | 38.70548 | 1.19796 | 6232 ft | 248 kts | 241° |
| 2026-05-07 15:49 | 38.69736 | 1.17854 | 5905 ft | 247 kts | 240° |
| 2026-05-07 15:49 | 38.68927 | 1.15917 | 5566 ft | 246 kts | 242° |
| 2026-05-07 15:49 | 38.68120 | 1.13990 | 5217 ft | 246 kts | 241° |
| 2026-05-07 15:49 | 38.67307 | 1.12054 | 4961 ft | 246 kts | 240° |
| 2026-05-07 15:50 | 38.66496 | 1.10122 | 4849 ft | 246 kts | 241° |
| 2026-05-07 15:50 | 38.65687 | 1.08188 | 4717 ft | 246 kts | 241° |
| 2026-05-07 15:50 | 38.64892 | 1.06260 | 4604 ft | 244 kts | 245° |
| 2026-05-07 15:50 | 38.64392 | 1.04258 | 4458 ft | 234 kts | 261° |
| 2026-05-07 15:51 | 38.64134 | 1.02148 | 4337 ft | 242 kts | 261° |
| 2026-05-07 15:51 | 38.63928 | 1.00004 | 4191 ft | 244 kts | 273° |
| 2026-05-07 15:51 | 38.64305 | 0.97915 | 4068 ft | 241 kts | 299° |
| 2026-05-07 15:51 | 38.65310 | 0.96246 | 3933 ft | 236 kts | 324° |
| 2026-05-07 15:52 | 38.66711 | 0.95179 | 3817 ft | 235 kts | 337° |
| 2026-05-07 15:52 | 38.68274 | 0.94785 | 3678 ft | 228 kts | 9° |
| 2026-05-07 15:52 | 38.69708 | 0.95549 | 3538 ft | 222 kts | 42° |
| 2026-05-07 15:52 | 38.70611 | 0.97108 | 3221 ft | 218 kts | 62° |
| 2026-05-07 15:53 | 38.71347 | 0.98814 | 3060 ft | 220 kts | 62° |
| 2026-05-07 15:53 | 38.72091 | 1.00537 | 3018 ft | 223 kts | 62° |
| 2026-05-07 15:53 | 38.72788 | 1.02305 | 3022 ft | 223 kts | 65° |
| 2026-05-07 15:53 | 38.73451 | 1.04055 | 3022 ft | 221 kts | 63° |
| 2026-05-07 15:54 | 38.74164 | 1.05800 | 3024 ft | 222 kts | 62° |
| 2026-05-07 15:54 | 38.74894 | 1.07547 | 3024 ft | 222 kts | 62° |
| 2026-05-07 15:54 | 38.75623 | 1.09290 | 3027 ft | 220 kts | 62° |
| 2026-05-07 15:54 | 38.76348 | 1.11024 | 3026 ft | 221 kts | 62° |
| 2026-05-07 15:55 | 38.77078 | 1.12769 | 3028 ft | 223 kts | 62° |
| 2026-05-07 15:55 | 38.77808 | 1.14519 | 3029 ft | 223 kts | 62° |
| 2026-05-07 15:55 | 38.78544 | 1.16279 | 3016 ft | 224 kts | 62° |
| 2026-05-07 15:55 | 38.79278 | 1.18042 | 3012 ft | 225 kts | 62° |
| 2026-05-07 15:56 | 38.80016 | 1.19812 | 2979 ft | 225 kts | 61° |
| 2026-05-07 15:56 | 38.80763 | 1.21606 | 2550 ft | 230 kts | 62° |
| 2026-05-07 15:56 | 38.81513 | 1.23408 | 2183 ft | 226 kts | 62° |
| 2026-05-07 15:56 | 38.82227 | 1.25125 | 1875 ft | 208 kts | 62° |
| 2026-05-07 15:57 | 38.82876 | 1.26685 | 1622 ft | 190 kts | 62° |
| 2026-05-07 15:57 | 38.83460 | 1.28092 | 1390 ft | 169 kts | 61° |
| 2026-05-07 15:57 | 38.83985 | 1.29354 | 1150 ft | 153 kts | 60° |
| 2026-05-07 15:57 | 38.84472 | 1.30527 | 958 ft | 146 kts | 61° |
| 2026-05-07 15:58 | 38.84948 | 1.31673 | 767 ft | 144 kts | 63° |
| 2026-05-07 15:58 | 38.85400 | 1.32761 | 589 ft | 135 kts | 61° |
| 2026-05-07 15:58 | 38.85851 | 1.33799 | 387 ft | 132 kts | 62° |
| 2026-05-07 15:58 | 38.86282 | 1.34808 | 247 ft | 128 kts | 64° |
| 2026-05-07 15:59 | 38.86678 | 1.35831 | 60 ft | 127 kts | 63° |
| 2026-05-07 15:59 | 38.87069 | 1.36790 | 10 ft | 108 kts | 63° |
| 2026-05-07 15:59 | 38.87336 | 1.37443 | 11 ft | 58 kts | 62° |
| 2026-05-07 15:59 | 38.87457 | 1.37712 | 9 ft | 21 kts | 53° |
| 2026-05-07 16:00 | 38.87562 | 1.37840 | 12 ft | 21 kts | 33° |
| 2026-05-07 16:00 | 38.87641 | 1.37905 | 10 ft | 0 kts | 31° |
| 2026-05-07 16:01 | 38.87643 | 1.37905 | 11 ft | 2 kts | 27° |
| 2026-05-07 16:01 | 38.87691 | 1.37877 | 9 ft | 12 kts | 283° |
| 2026-05-07 16:02 | 38.87665 | 1.37781 | 9 ft | 11 kts | 242° |
| 2026-05-07 16:02 | 38.87631 | 1.37698 | 9 ft | 10 kts | 242° |
| 2026-05-07 16:02 | 38.87600 | 1.37621 | 9 ft | 9 kts | 242° |
| 2026-05-07 16:02 | 38.87600 | 1.37558 | 9 ft | 7 kts | 323° |
| 2026-05-07 16:03 | 38.87638 | 1.37521 | 9 ft | 7 kts | 327° |
| 2026-05-07 16:03 | 38.87674 | 1.37491 | 10 ft | 6 kts | 327° |
| 2026-05-07 16:03 | 38.87692 | 1.37453 | 9 ft | 5 kts | 280° |
| 2026-05-07 16:03 | 38.87684 | 1.37399 | 8 ft | 8 kts | 249° |
| 2026-05-07 16:04 | 38.87657 | 1.37325 | 8 ft | 11 kts | 245° |
| 2026-05-07 16:04 | 38.87619 | 1.37228 | 8 ft | 14 kts | 242° |
| 2026-05-07 16:04 | 38.87568 | 1.37113 | 8 ft | 16 kts | 240° |
| 2026-05-07 16:04 | 38.87514 | 1.36982 | 9 ft | 7 kts | 243° |
| 2026-05-07 16:05 | 38.87541 | 1.36933 | 8 ft | 6 kts | 330° |
| 2026-05-07 16:05 | 38.87563 | 1.36918 | 8 ft | 0 kts | 332° |
| 2026-05-07 16:05 | 38.87564 | 1.36918 | 8 ft | 0 kts | 332° |